createdAt,value
2019-01-25T00:00:57.293Z,98193.06
2019-01-25T00:03:10.360Z,98189.69
2019-01-25T00:05:21.056Z,98195.68
2019-01-25T00:07:31.961Z,98191.48
2019-01-25T00:09:42.794Z,98196.16
2019-01-25T00:11:53.630Z,98189.34
2019-01-25T00:14:46.110Z,98194.00
2019-01-25T00:16:56.896Z,98191.08
2019-01-25T00:19:07.832Z,98196.60
2019-01-25T00:21:18.722Z,98191.89
2019-01-25T00:23:29.521Z,98193.13
2019-01-25T00:25:40.334Z,98196.45
2019-01-25T00:27:51.157Z,98193.85
2019-01-25T00:30:43.624Z,98197.67
2019-01-25T00:32:54.501Z,98201.48
2019-01-25T00:35:46.972Z,98207.41
2019-01-25T00:37:57.781Z,98206.58
2019-01-25T00:40:50.258Z,98204.92
2019-01-25T00:43:01.059Z,98206.30
2019-01-25T00:45:53.541Z,98205.97
2019-01-25T00:48:04.548Z,98209.47
2019-01-25T00:50:35.236Z,98207.79
2019-01-25T00:55:38.496Z,98209.48
2019-01-25T00:57:49.269Z,98203.53
2019-01-25T01:00:00.160Z,98207.77
2019-01-25T01:02:10.998Z,98207.72
2019-01-25T01:04:21.796Z,98210.70
2019-01-25T01:06:32.614Z,98211.08
2019-01-25T01:08:43.420Z,98209.78
2019-01-25T01:10:54.266Z,98213.58
2019-01-25T01:13:05.158Z,98206.39
2019-01-25T01:15:16.044Z,98213.17
2019-01-25T01:17:26.860Z,98216.15
2019-01-25T01:19:37.647Z,98213.59
2019-01-25T01:21:48.510Z,98211.52
2019-01-25T01:23:59.294Z,98216.98
2019-01-25T01:26:10.082Z,98216.13
2019-01-25T01:28:20.904Z,98220.41
2019-01-25T01:30:31.710Z,98219.56
2019-01-25T01:32:42.544Z,98230.15
2019-01-25T01:34:53.336Z,98229.29
2019-01-25T01:37:04.298Z,98228.84
2019-01-25T01:39:15.096Z,98227.14
2019-01-25T01:41:25.891Z,98229.27
2019-01-25T01:43:36.724Z,98235.13
2019-01-25T01:45:47.628Z,98230.00
2019-01-25T01:47:58.547Z,98232.11
2019-01-25T01:50:50.992Z,98230.09
2019-01-25T01:53:01.810Z,98227.11
2019-01-25T01:55:12.810Z,98230.11
2019-01-25T01:57:23.618Z,98229.68
2019-01-25T01:59:34.431Z,98229.61
2019-01-25T02:01:45.224Z,98234.70
2019-01-25T02:03:56.047Z,98231.73
2019-01-25T02:06:06.949Z,98239.72
2019-01-25T02:08:17.778Z,98233.79
2019-01-25T02:10:29.484Z,98234.24
2019-01-25T02:12:41.300Z,98231.67
2019-01-25T02:14:52.109Z,98231.70
2019-01-25T02:17:03.004Z,98228.72
2019-01-25T02:19:13.816Z,98228.73
2019-01-25T02:21:24.626Z,98227.84
2019-01-25T02:23:35.420Z,98228.70
2019-01-25T02:25:46.238Z,98229.13
2019-01-25T02:27:57.035Z,98228.77
2019-01-25T02:30:49.524Z,98228.38
2019-01-25T02:33:00.333Z,98231.38
2019-01-25T02:35:11.146Z,98233.13
2019-01-25T02:37:21.953Z,98231.90
2019-01-25T02:39:32.782Z,98231.48
2019-01-25T02:41:43.608Z,98225.95
2019-01-25T02:43:54.434Z,98225.86
2019-01-25T02:46:05.249Z,98227.95
2019-01-25T02:48:16.149Z,98225.44
2019-01-25T02:50:26.986Z,98229.67
2019-01-25T02:52:37.890Z,98230.13
2019-01-25T02:54:48.672Z,98233.53
2019-01-25T02:56:59.485Z,98230.59
2019-01-25T02:59:10.385Z,98232.37
2019-01-25T03:01:21.197Z,98230.21
2019-01-25T03:03:32.007Z,98231.09
2019-01-25T03:05:42.931Z,98229.84
2019-01-25T03:07:53.832Z,98223.98
2019-01-25T03:10:47.287Z,98229.03
2019-01-25T03:12:59.072Z,98229.94
2019-01-25T03:15:29.756Z,98235.07
2019-01-25T03:17:40.694Z,98236.34
2019-01-25T03:19:51.479Z,98245.74
2019-01-25T03:22:02.501Z,98236.84
2019-01-25T03:24:13.321Z,98237.25
2019-01-25T03:26:24.145Z,98241.05
2019-01-25T03:28:34.963Z,98236.38
2019-01-25T03:30:45.764Z,98239.34
2019-01-25T03:32:56.624Z,98243.57
2019-01-25T03:35:49.102Z,98245.31
2019-01-25T03:37:59.930Z,98246.19
2019-01-25T03:40:55.062Z,98249.61
2019-01-25T03:43:05.117Z,98247.11
2019-01-25T03:45:57.559Z,98245.87
2019-01-25T03:48:08.486Z,98248.45
2019-01-25T03:51:00.935Z,98247.21
2019-01-25T03:53:11.760Z,98246.78
2019-01-25T03:56:04.200Z,98240.00
2019-01-25T03:58:15.029Z,98245.87
2019-01-25T04:01:07.473Z,98249.69
2019-01-25T04:03:18.317Z,98245.03
2019-01-25T04:05:29.125Z,98248.42
2019-01-25T04:07:39.935Z,98249.72
2019-01-25T04:09:50.866Z,98256.45
2019-01-25T04:12:01.650Z,98258.98
2019-01-25T04:14:12.475Z,98256.45
2019-01-25T04:16:23.512Z,98253.53
2019-01-25T04:18:34.312Z,98255.23
2019-01-25T04:20:45.113Z,98267.16
2019-01-25T04:22:56.023Z,98266.78
2019-01-25T04:25:48.503Z,98268.89
2019-01-25T04:27:59.296Z,98273.99
2019-01-25T04:30:29.979Z,98264.31
2019-01-25T04:32:40.785Z,98271.91
2019-01-25T04:34:51.606Z,98280.80
2019-01-25T04:37:02.535Z,98278.70
2019-01-25T04:39:13.365Z,98274.89
2019-01-25T04:41:24.147Z,98284.17
2019-01-25T04:43:34.967Z,98283.75
2019-01-25T04:45:45.780Z,98286.27
2019-01-25T04:47:56.582Z,98291.35
2019-01-25T04:50:49.064Z,98293.01
2019-01-25T04:52:59.868Z,98291.32
2019-01-25T04:55:30.863Z,98295.92
2019-01-25T04:57:41.669Z,98292.09
2019-01-25T04:59:52.502Z,98297.14
2019-01-25T05:02:03.488Z,98297.95
2019-01-25T05:04:14.274Z,98305.54
2019-01-25T05:06:25.086Z,98300.45
2019-01-25T05:08:35.878Z,98302.58
2019-01-25T05:10:46.922Z,98302.13
2019-01-25T05:12:57.729Z,98310.13
2019-01-25T05:15:08.620Z,98306.30
2019-01-25T05:17:19.433Z,98305.46
2019-01-25T05:20:11.935Z,98306.72
2019-01-25T05:22:22.738Z,98304.61
2019-01-25T05:24:33.549Z,98311.73
2019-01-25T05:26:44.363Z,98315.95
2019-01-25T05:28:55.147Z,98327.34
2019-01-25T05:31:05.957Z,98324.39
2019-01-25T05:33:16.756Z,98324.86
2019-01-25T05:36:09.230Z,98321.09
2019-01-25T05:38:20.046Z,98320.70
2019-01-25T05:40:30.925Z,98324.51
2019-01-25T05:42:41.758Z,98328.33
2019-01-25T05:44:52.545Z,98327.47
2019-01-25T05:47:45.008Z,98338.03
2019-01-25T05:49:55.822Z,98339.22
2019-01-25T05:52:48.307Z,98330.78
2019-01-25T05:54:59.109Z,98333.32
2019-01-25T05:57:09.936Z,98321.09
2019-01-25T06:00:02.357Z,98330.41
2019-01-25T06:02:13.209Z,98325.58
2019-01-25T06:05:05.694Z,98322.63
2019-01-25T06:07:36.388Z,98325.57
2019-01-25T06:09:47.248Z,98325.57
2019-01-25T06:11:58.047Z,98332.73
2019-01-25T06:14:50.514Z,98336.95
2019-01-25T06:17:01.329Z,98337.36
2019-01-25T06:19:12.251Z,98326.80
2019-01-25T06:21:23.028Z,98333.13
2019-01-25T06:23:33.864Z,98339.48
2019-01-25T06:26:26.295Z,98345.39
2019-01-25T06:28:37.132Z,98349.17
2019-01-25T06:30:47.930Z,98352.57
2019-01-25T06:32:58.733Z,98342.00
2019-01-25T06:35:51.214Z,98350.86
2019-01-25T06:38:02.009Z,98346.66
2019-01-25T06:40:54.467Z,98353.81
2019-01-25T06:43:05.263Z,98347.91
2019-01-25T06:45:16.172Z,98348.34
2019-01-25T06:47:26.975Z,98343.69
2019-01-25T06:49:37.851Z,98347.95
2019-01-25T06:51:48.645Z,98351.76
2019-01-25T06:53:59.467Z,98358.09
2019-01-25T06:56:10.270Z,98354.72
2019-01-25T06:58:41.046Z,98357.26
2019-01-25T07:01:11.766Z,98361.91
2019-01-25T07:03:22.578Z,98367.84
2019-01-25T07:05:33.379Z,98369.95
2019-01-25T07:10:58.218Z,98380.95
2019-01-25T07:13:09.015Z,98381.39
2019-01-25T07:17:38.275Z,98392.81
2019-01-25T07:19:49.095Z,98394.09
2019-01-25T07:21:59.910Z,98392.39
2019-01-25T07:24:10.714Z,98394.09
2019-01-25T07:26:21.557Z,98392.41
2019-01-25T07:28:32.346Z,98400.02
2019-01-25T07:30:43.234Z,98406.77
2019-01-25T07:32:53.971Z,98407.20
2019-01-25T07:35:46.461Z,98413.12
2019-01-25T07:37:57.266Z,98415.23
2019-01-25T07:40:49.745Z,98416.50
2019-01-25T07:43:00.585Z,98419.45
2019-01-25T07:45:53.032Z,98420.30
2019-01-25T07:48:04.043Z,98426.66
2019-01-25T07:50:34.729Z,98413.53
2019-01-25T07:52:45.565Z,98413.53
2019-01-25T07:54:56.385Z,98413.96
2019-01-25T07:57:07.176Z,98410.56
2019-01-25T07:59:17.979Z,98420.30
2019-01-25T08:01:28.889Z,98420.30
2019-01-25T08:03:39.738Z,98422.83
2019-01-25T08:05:50.632Z,98428.34
2019-01-25T08:08:01.785Z,98421.55
2019-01-25T08:10:26.040Z,98434.24
2019-01-25T08:12:50.210Z,98423.66
2019-01-25T08:15:01.276Z,98423.66
2019-01-25T08:17:12.114Z,98421.12
2019-01-25T08:19:22.892Z,98424.94
2019-01-25T08:21:33.712Z,98423.25
2019-01-25T08:23:44.509Z,98424.50
2019-01-25T08:25:55.441Z,98419.83
2019-01-25T08:28:06.360Z,98422.38
2019-01-25T08:30:58.845Z,98421.52
2019-01-25T08:33:09.705Z,98421.52
2019-01-25T08:35:20.682Z,98424.45
2019-01-25T08:37:31.498Z,98435.85
2019-01-25T08:39:42.286Z,98423.58
2019-01-25T08:41:53.123Z,98429.88
2019-01-25T08:44:03.923Z,98429.48
2019-01-25T08:46:14.842Z,98418.48
2019-01-25T08:48:25.629Z,98421.43
2019-01-25T08:50:36.571Z,98425.19
2019-01-25T08:52:47.475Z,98433.59
2019-01-25T08:55:00.349Z,98429.72
2019-01-25T08:57:12.826Z,98430.05
2019-01-25T08:59:23.669Z,98429.19
2019-01-25T09:01:34.459Z,98427.88
2019-01-25T09:03:45.307Z,98427.78
2019-01-25T09:05:56.122Z,98435.79
2019-01-25T09:08:07.020Z,98436.98
2019-01-25T09:10:37.733Z,98437.81
2019-01-25T09:12:48.661Z,98433.55
2019-01-25T09:14:59.465Z,98437.00
2019-01-25T09:17:10.287Z,98438.73
2019-01-25T09:19:21.210Z,98431.83
2019-01-25T09:21:31.987Z,98426.73
2019-01-25T09:23:42.878Z,98434.70
2019-01-25T09:26:00.765Z,98434.55
2019-01-25T09:28:06.409Z,98429.05
2019-01-25T09:30:37.088Z,98441.61
2019-01-25T09:32:47.904Z,98434.07
2019-01-25T09:34:58.741Z,98429.71
2019-01-25T09:37:09.529Z,98427.61
2019-01-25T09:39:20.339Z,98416.92
2019-01-25T09:41:31.158Z,98430.96
2019-01-25T09:43:41.977Z,98432.05
2019-01-25T09:45:52.790Z,98429.69
2019-01-25T09:48:45.229Z,98434.00
2019-01-25T09:50:56.064Z,98432.89
2019-01-25T09:53:06.863Z,98441.42
2019-01-25T09:55:37.551Z,98441.42
2019-01-25T09:58:29.990Z,98443.78
2019-01-25T10:01:22.448Z,98450.05
2019-01-25T10:03:33.246Z,98448.91
2019-01-25T10:05:44.218Z,98453.33
2019-01-25T10:07:55.158Z,98451.39
2019-01-25T10:10:47.646Z,98453.06
2019-01-25T10:12:58.464Z,98448.84
2019-01-25T10:15:50.908Z,98453.94
2019-01-25T10:18:01.729Z,98461.73
2019-01-25T10:20:54.183Z,98464.94
2019-01-25T10:23:04.994Z,98463.17
2019-01-25T10:25:15.801Z,98462.80
2019-01-25T10:27:26.609Z,98447.20
2019-01-25T10:29:37.410Z,98458.70
2019-01-25T10:31:48.364Z,98459.45
2019-01-25T10:33:59.158Z,98461.42
2019-01-25T10:36:10.064Z,98454.59
2019-01-25T10:38:20.897Z,98457.23
2019-01-25T10:40:31.691Z,98449.92
2019-01-25T10:46:02.977Z,98460.77
2019-01-25T10:48:13.827Z,98456.94
2019-01-25T10:50:24.715Z,98466.28
2019-01-25T10:52:35.525Z,98457.30
2019-01-25T10:54:46.376Z,98460.38
2019-01-25T10:56:57.219Z,98453.11
2019-01-25T10:59:08.029Z,98447.52
2019-01-25T11:01:38.702Z,98435.53
2019-01-25T11:03:49.616Z,98435.53
2019-01-25T11:06:00.512Z,98443.86
2019-01-25T11:08:11.305Z,98443.67
2019-01-25T11:10:22.140Z,98437.78
2019-01-25T11:12:33.028Z,98426.16
2019-01-25T11:14:43.860Z,98429.80
2019-01-25T11:16:54.661Z,98422.58
2019-01-25T11:19:05.569Z,98414.25
2019-01-25T11:21:16.735Z,98409.58
2019-01-25T11:23:27.553Z,98405.44
2019-01-25T11:26:20.317Z,98403.59
2019-01-25T11:28:31.211Z,98404.15
2019-01-25T11:30:42.049Z,98413.10
2019-01-25T11:32:52.882Z,98416.15
2019-01-25T11:35:05.983Z,98417.08
2019-01-25T11:37:16.871Z,98408.83
2019-01-25T11:39:27.688Z,98418.22
2019-01-25T11:41:38.511Z,98415.27
2019-01-25T11:43:49.322Z,98419.59
2019-01-25T11:46:00.153Z,98418.70
2019-01-25T11:48:52.599Z,98413.14
2019-01-25T11:51:03.514Z,98409.12
2019-01-25T11:53:14.311Z,98402.27
2019-01-25T11:55:25.229Z,98403.80
2019-01-25T11:57:36.109Z,98401.23
2019-01-25T11:59:46.927Z,98409.47
2019-01-25T12:01:57.742Z,98414.23
2019-01-25T12:06:41.025Z,98419.00
2019-01-25T12:08:51.863Z,98417.48
2019-01-25T12:11:02.850Z,98426.73
2019-01-25T12:13:16.183Z,98429.23
2019-01-25T12:15:26.341Z,98420.72
2019-01-25T12:17:37.151Z,98424.61
2019-01-25T12:19:47.929Z,98428.34
2019-01-25T12:21:58.932Z,98430.02
2019-01-25T12:24:09.833Z,98426.92
2019-01-25T12:26:20.656Z,98425.45
2019-01-25T12:28:31.490Z,98425.04
2019-01-25T12:30:42.283Z,98420.33
2019-01-25T12:32:53.107Z,98417.66
2019-01-25T12:35:45.549Z,98421.59
2019-01-25T12:37:56.376Z,98418.55
2019-01-25T12:40:48.870Z,98421.76
2019-01-25T12:43:41.354Z,98420.81
2019-01-25T12:45:52.150Z,98427.99
2019-01-25T12:48:03.205Z,98425.04
2019-01-25T12:50:55.663Z,98431.20
2019-01-25T12:53:48.125Z,98428.34
2019-01-25T12:55:58.922Z,98419.75
2019-01-25T12:58:09.778Z,98426.38
2019-01-25T13:00:40.555Z,98434.25
2019-01-25T13:03:33.034Z,98437.95
2019-01-25T13:05:43.966Z,98435.33
2019-01-25T13:07:54.798Z,98439.70
2019-01-25T13:10:47.255Z,98436.67
2019-01-25T13:12:58.198Z,98433.02
2019-01-25T13:15:50.649Z,98438.93
2019-01-25T13:18:01.491Z,98433.86
2019-01-25T13:23:04.629Z,98433.86
2019-01-25T13:25:15.719Z,98431.98
2019-01-25T13:27:26.549Z,98431.00
2019-01-25T13:29:37.421Z,98431.88
2019-01-25T13:31:48.449Z,98434.34
2019-01-25T13:34:01.051Z,98426.02
2019-01-25T13:36:11.980Z,98428.30
2019-01-25T13:38:22.803Z,98429.97
2019-01-25T13:40:33.750Z,98421.13
2019-01-25T13:42:44.696Z,98415.95
2019-01-25T13:44:55.517Z,98415.56
2019-01-25T13:47:06.441Z,98409.77
2019-01-25T13:49:17.282Z,98412.38
2019-01-25T13:51:28.132Z,98410.10
2019-01-25T13:53:39.021Z,98416.84
2019-01-25T13:55:49.866Z,98417.91
2019-01-25T13:58:00.683Z,98416.58
2019-01-25T14:00:32.274Z,98422.03
2019-01-25T14:02:43.072Z,98418.58
2019-01-25T14:04:53.881Z,98416.28
2019-01-25T14:07:04.696Z,98428.16
2019-01-25T14:09:16.853Z,98428.23
2019-01-25T14:11:28.352Z,98430.02
2019-01-25T14:13:39.160Z,98433.38
2019-01-25T14:15:50.026Z,98435.04
2019-01-25T14:18:00.963Z,98441.73
2019-01-25T14:20:31.866Z,98447.39
2019-01-25T14:22:42.724Z,98448.62
2019-01-25T14:24:53.544Z,98445.22
2019-01-25T14:27:04.371Z,98441.38
2019-01-25T14:29:15.199Z,98437.61
2019-01-25T14:31:26.115Z,98443.51
2019-01-25T14:33:36.933Z,98441.88
2019-01-25T14:35:47.750Z,98440.22
2019-01-25T14:37:58.595Z,98453.02
2019-01-25T14:40:09.503Z,98436.03
2019-01-25T14:42:20.335Z,98448.00
2019-01-25T14:44:31.136Z,98447.66
2019-01-25T14:46:41.956Z,98444.03
2019-01-25T14:48:52.839Z,98443.09
2019-01-25T14:51:03.778Z,98440.92
2019-01-25T14:53:14.728Z,98439.69
2019-01-25T14:55:25.529Z,98442.16
2019-01-25T14:57:36.493Z,98436.53
2019-01-25T14:59:47.287Z,98437.75
2019-01-25T15:01:58.125Z,98445.73
2019-01-25T15:04:08.926Z,98443.55
2019-01-25T15:06:19.757Z,98442.23
2019-01-25T15:08:30.561Z,98450.00
2019-01-25T15:10:41.387Z,98450.84
2019-01-25T15:13:33.876Z,98449.56
2019-01-25T15:15:44.663Z,98452.52
2019-01-25T15:17:55.527Z,98443.71
2019-01-25T15:20:26.212Z,98436.05
2019-01-25T15:22:37.056Z,98438.65
2019-01-25T15:24:47.878Z,98438.02
2019-01-25T15:26:58.685Z,98444.52
2019-01-25T15:29:09.605Z,98444.14
2019-01-25T15:31:20.411Z,98444.72
2019-01-25T15:33:31.374Z,98442.66
2019-01-25T15:35:42.164Z,98440.25
2019-01-25T15:37:53.094Z,98436.38
2019-01-25T15:40:27.722Z,98437.73
2019-01-25T15:42:40.535Z,98448.11
2019-01-25T15:45:33.105Z,98444.23
2019-01-25T15:47:44.237Z,98448.99
2019-01-25T15:49:55.052Z,98456.32
2019-01-25T15:52:05.863Z,98457.64
2019-01-25T15:54:36.651Z,98463.20
2019-01-25T15:56:47.462Z,98452.22
2019-01-25T15:58:58.338Z,98454.44
2019-01-25T16:01:09.125Z,98455.36
2019-01-25T16:03:19.972Z,98458.36
2019-01-25T16:05:30.899Z,98459.27
2019-01-25T16:07:41.814Z,98458.84
2019-01-25T16:09:52.643Z,98455.45
2019-01-25T16:12:17.166Z,98460.59
2019-01-25T16:14:28.004Z,98464.88
2019-01-25T16:16:38.911Z,98473.86
2019-01-25T16:18:49.783Z,98488.75
2019-01-25T16:21:00.687Z,98473.55
2019-01-25T16:23:11.497Z,98484.61
2019-01-25T16:26:03.960Z,98490.16
2019-01-25T16:28:14.796Z,98487.61
2019-01-25T16:31:07.277Z,98472.75
2019-01-25T16:33:18.132Z,98477.81
2019-01-25T16:35:29.092Z,98476.15
2019-01-25T16:37:39.889Z,98475.30
2019-01-25T16:39:50.705Z,98468.04
2019-01-25T16:42:01.561Z,98462.48
2019-01-25T16:44:12.582Z,98461.20
2019-01-25T16:46:43.389Z,98466.72
2019-01-25T16:48:54.200Z,98471.83
2019-01-25T16:51:05.116Z,98470.52
2019-01-25T16:53:15.919Z,98463.24
2019-01-25T16:55:26.847Z,98458.09
2019-01-25T16:57:37.670Z,98468.36
2019-01-25T16:59:48.481Z,98470.95
2019-01-25T17:01:59.318Z,98469.76
2019-01-25T17:04:10.135Z,98465.84
2019-01-25T17:06:21.065Z,98470.95
2019-01-25T17:08:31.989Z,98472.23
2019-01-25T17:10:42.828Z,98471.44
2019-01-25T17:12:53.626Z,98470.19
2019-01-25T17:15:46.190Z,98471.47
2019-01-25T17:17:57.021Z,98482.09
2019-01-25T17:20:28.001Z,98488.88
2019-01-25T17:22:38.942Z,98494.42
2019-01-25T17:24:49.751Z,98501.54
2019-01-25T17:27:00.591Z,98491.80
2019-01-25T17:29:11.409Z,98485.45
2019-01-25T17:31:22.213Z,98483.81
2019-01-25T17:33:33.040Z,98477.91
2019-01-25T17:35:43.855Z,98488.05
2019-01-25T17:37:54.676Z,98482.89
2019-01-25T17:40:47.255Z,98483.30
2019-01-25T17:43:40.900Z,98489.31
2019-01-25T17:45:52.586Z,98482.49
2019-01-25T17:48:45.342Z,98475.67
2019-01-25T17:50:56.131Z,98472.75
2019-01-25T17:53:06.984Z,98479.14
2019-01-25T17:55:17.814Z,98480.41
2019-01-25T17:57:28.646Z,98485.48
2019-01-25T17:59:39.424Z,98484.65
2019-01-25T18:01:50.242Z,98491.96
2019-01-25T18:04:01.104Z,98496.27
2019-01-25T18:06:11.922Z,98499.26
2019-01-25T18:08:22.849Z,98493.71
2019-01-25T18:10:33.914Z,98488.60
2019-01-25T18:12:44.732Z,98489.48
2019-01-25T18:14:55.563Z,98479.78
2019-01-25T18:17:06.459Z,98482.01
2019-01-25T18:19:17.423Z,98479.30
2019-01-25T18:21:28.221Z,98475.95
2019-01-25T18:23:39.167Z,98480.22
2019-01-25T18:25:50.212Z,98481.94
2019-01-25T18:28:42.680Z,98483.73
2019-01-25T18:31:35.133Z,98485.84
2019-01-25T18:33:46.065Z,98492.23
2019-01-25T18:35:56.899Z,98494.34
2019-01-25T18:38:07.842Z,98499.49
2019-01-25T18:40:18.711Z,98494.78
2019-01-25T18:42:29.675Z,98488.03
2019-01-25T18:44:40.529Z,98491.91
2019-01-25T18:46:51.387Z,98482.92
2019-01-25T18:49:43.866Z,98474.03
2019-01-25T18:51:54.773Z,98480.45
2019-01-25T18:54:05.593Z,98483.41
2019-01-25T18:56:16.458Z,98477.45
2019-01-25T18:58:27.292Z,98477.45
2019-01-25T19:03:14.351Z,98482.93
2019-01-25T19:05:25.226Z,98480.41
2019-01-25T19:07:36.037Z,98476.14
2019-01-25T19:09:46.900Z,98463.77
2019-01-25T19:11:57.714Z,98451.84
2019-01-25T19:14:08.562Z,98451.88
2019-01-25T19:16:19.460Z,98450.60
2019-01-25T19:18:30.283Z,98449.33
2019-01-25T19:20:41.215Z,98451.52
2019-01-25T19:25:50.745Z,98449.88
2019-01-25T19:28:01.677Z,98443.46
2019-01-25T19:30:54.151Z,98443.53
2019-01-25T19:33:05.065Z,98448.53
2019-01-25T19:35:15.962Z,98440.02
2019-01-25T19:37:26.890Z,98442.14
2019-01-25T19:39:37.712Z,98440.83
2019-01-25T19:41:48.564Z,98442.54
2019-01-25T19:43:59.444Z,98433.97
2019-01-25T19:46:10.379Z,98441.59
2019-01-25T19:48:21.354Z,98442.91
2019-01-25T19:50:32.286Z,98443.74
2019-01-25T19:52:43.149Z,98442.94
2019-01-25T19:54:54.012Z,98442.47
2019-01-25T19:57:04.914Z,98444.26
2019-01-25T19:59:15.868Z,98440.78
2019-01-25T20:01:26.796Z,98439.47
2019-01-25T20:03:37.925Z,98447.57
2019-01-25T20:05:50.397Z,98443.34
2019-01-25T20:10:47.037Z,98446.30
2019-01-25T20:12:58.055Z,98457.80
2019-01-25T20:15:50.516Z,98465.02
2019-01-25T20:18:01.373Z,98467.16
2019-01-25T20:20:53.831Z,98468.52
2019-01-25T20:23:04.862Z,98463.81
2019-01-25T20:25:15.706Z,98469.67
2019-01-25T20:27:26.513Z,98459.86
2019-01-25T20:29:37.454Z,98455.63
2019-01-25T20:31:48.390Z,98464.17
2019-01-25T20:33:59.344Z,98461.58
2019-01-25T20:36:10.199Z,98455.23
2019-01-25T20:38:21.054Z,98452.68
2019-01-25T20:40:32.108Z,98454.36
2019-01-25T20:43:24.656Z,98460.30
2019-01-25T20:46:17.105Z,98462.45
2019-01-25T20:48:27.968Z,98466.25
2019-01-25T20:50:38.867Z,98467.56
2019-01-25T20:52:49.691Z,98453.95
2019-01-25T20:55:00.549Z,98451.36
2019-01-25T20:57:11.364Z,98445.34
2019-01-25T20:59:22.180Z,98441.10
2019-01-25T21:01:33.085Z,98441.90
2019-01-25T21:03:43.912Z,98436.80
2019-01-25T21:05:54.848Z,98435.52
2019-01-25T21:08:06.003Z,98434.64
2019-01-25T21:10:36.823Z,98429.97
2019-01-25T21:12:47.809Z,98420.67
2019-01-25T21:14:58.718Z,98424.06
2019-01-25T21:17:09.697Z,98410.14
2019-01-25T21:19:20.568Z,98405.79
2019-01-25T21:21:31.417Z,98404.91
2019-01-25T21:23:42.329Z,98401.95
2019-01-25T21:25:53.130Z,98403.23
2019-01-25T21:28:04.407Z,98398.52
2019-01-25T21:30:56.852Z,98398.52
2019-01-25T21:33:07.863Z,98398.13
2019-01-25T21:35:18.919Z,98396.36
2019-01-25T21:37:29.803Z,98388.31
2019-01-25T21:39:40.623Z,98387.87
2019-01-25T21:41:51.453Z,98388.83
2019-01-25T21:44:02.474Z,98385.39
2019-01-25T21:46:13.275Z,98391.70
2019-01-25T21:48:24.122Z,98390.41
2019-01-25T21:51:16.576Z,98389.62
2019-01-25T21:53:27.591Z,98383.16
2019-01-25T21:55:38.485Z,98382.36
2019-01-25T21:57:49.417Z,98377.17
2019-01-25T22:00:00.219Z,98369.16
2019-01-25T22:02:11.133Z,98370.42
2019-01-25T22:04:23.352Z,98373.06
2019-01-25T22:06:34.879Z,98375.18
2019-01-25T22:08:45.723Z,98375.58
2019-01-25T22:10:56.550Z,98374.27
2019-01-25T22:13:07.470Z,98373.86
2019-01-25T22:17:51.057Z,98369.16
2019-01-25T22:20:23.680Z,98369.99
2019-01-25T22:22:34.485Z,98367.83
2019-01-25T22:24:45.336Z,98354.61
2019-01-25T22:26:56.155Z,98359.29
2019-01-25T22:29:06.971Z,98360.16
2019-01-25T22:31:17.790Z,98355.90
2019-01-25T22:33:28.600Z,98350.34
2019-01-25T22:35:39.433Z,98349.07
2019-01-25T22:37:50.351Z,98351.18
2019-01-25T22:40:42.816Z,98347.30
2019-01-25T22:42:53.649Z,98343.91
2019-01-25T22:45:46.110Z,98339.54
2019-01-25T22:48:38.549Z,98342.10
2019-01-25T22:50:49.381Z,98337.08
2019-01-25T22:53:00.216Z,98334.92
2019-01-25T22:55:52.677Z,98337.96
2019-01-25T22:58:03.731Z,98335.80
2019-01-25T23:00:55.818Z,98333.20
2019-01-25T23:03:06.639Z,98333.55
2019-01-25T23:05:39.232Z,98331.45
2019-01-25T23:07:50.048Z,98332.72
2019-01-25T23:10:01.278Z,98332.27
2019-01-25T23:12:12.236Z,98329.28
2019-01-25T23:14:23.043Z,98329.67
2019-01-25T23:16:33.856Z,98319.89
2019-01-25T23:18:44.658Z,98318.53
2019-01-25T23:20:55.490Z,98316.05
2019-01-25T23:23:06.328Z,98319.41
2019-01-25T23:25:17.135Z,98312.14
2019-01-25T23:27:27.954Z,98302.31
2019-01-25T23:29:38.851Z,98304.52
2019-01-25T23:31:49.768Z,98297.34
2019-01-25T23:34:00.676Z,98293.52
2019-01-25T23:36:11.485Z,98286.30
2019-01-25T23:38:22.315Z,98281.62
2019-01-25T23:40:33.140Z,98276.57
2019-01-25T23:42:44.162Z,98276.06
2019-01-25T23:44:54.956Z,98279.46
2019-01-25T23:47:05.762Z,98276.91
2019-01-25T23:49:16.593Z,98275.18
2019-01-25T23:51:27.389Z,98276.02
2019-01-25T23:53:38.218Z,98275.58
2019-01-25T23:55:49.013Z,98278.97
2019-01-25T23:57:59.823Z,98280.59
